sensor_id;sensor_type;location;lat;lon;timestamp;P1;durP1;ratioP1;P2;durP2;ratioP2
24644;SDS011;12780;45.502;9.146;2022-11-20T00:01:20;38.90;;;18.35;;
24644;SDS011;12780;45.502;9.146;2022-11-20T00:03:48;34.38;;;16.67;;
24644;SDS011;12780;45.502;9.146;2022-11-20T00:06:15;34.38;;;16.95;;
24644;SDS011;12780;45.502;9.146;2022-11-20T00:08:42;32.95;;;16.15;;
24644;SDS011;12780;45.502;9.146;2022-11-20T00:11:12;38.03;;;16.75;;
24644;SDS011;12780;45.502;9.146;2022-11-20T00:13:41;33.65;;;15.95;;
24644;SDS011;12780;45.502;9.146;2022-11-20T00:16:09;36.00;;;16.65;;
24644;SDS011;12780;45.502;9.146;2022-11-20T00:18:36;32.42;;;16.55;;
24644;SDS011;12780;45.502;9.146;2022-11-20T00:21:03;29.75;;;15.45;;
24644;SDS011;12780;45.502;9.146;2022-11-20T00:23:29;31.02;;;15.93;;
24644;SDS011;12780;45.502;9.146;2022-11-20T00:25:55;32.22;;;16.00;;
24644;SDS011;12780;45.502;9.146;2022-11-20T00:28:20;34.15;;;16.35;;
24644;SDS011;12780;45.502;9.146;2022-11-20T00:30:46;30.27;;;15.38;;
24644;SDS011;12780;45.502;9.146;2022-11-20T00:33:11;33.58;;;16.15;;
24644;SDS011;12780;45.502;9.146;2022-11-20T00:35:37;33.22;;;16.23;;
24644;SDS011;12780;45.502;9.146;2022-11-20T00:38:03;31.98;;;15.75;;
24644;SDS011;12780;45.502;9.146;2022-11-20T00:40:29;32.80;;;15.68;;
24644;SDS011;12780;45.502;9.146;2022-11-20T00:42:54;36.78;;;16.88;;
24644;SDS011;12780;45.502;9.146;2022-11-20T00:45:20;36.22;;;17.17;;
24644;SDS011;12780;45.502;9.146;2022-11-20T00:47:45;38.55;;;18.17;;
24644;SDS011;12780;45.502;9.146;2022-11-20T00:50:11;34.17;;;16.48;;
24644;SDS011;12780;45.502;9.146;2022-11-20T00:52:36;34.47;;;15.95;;
24644;SDS011;12780;45.502;9.146;2022-11-20T00:55:02;37.17;;;16.08;;
24644;SDS011;12780;45.502;9.146;2022-11-20T00:57:28;32.72;;;15.93;;
24644;SDS011;12780;45.502;9.146;2022-11-20T00:59:54;35.33;;;17.17;;
24644;SDS011;12780;45.502;9.146;2022-11-20T01:02:19;34.63;;;17.00;;
24644;SDS011;12780;45.502;9.146;2022-11-20T01:04:45;36.33;;;16.33;;
24644;SDS011;12780;45.502;9.146;2022-11-20T01:07:11;32.05;;;15.88;;
24644;SDS011;12780;45.502;9.146;2022-11-20T01:09:36;32.20;;;16.50;;
24644;SDS011;12780;45.502;9.146;2022-11-20T01:12:02;34.38;;;16.77;;
24644;SDS011;12780;45.502;9.146;2022-11-20T01:14:28;35.00;;;18.08;;
24644;SDS011;12780;45.502;9.146;2022-11-20T01:16:53;35.95;;;17.23;;
24644;SDS011;12780;45.502;9.146;2022-11-20T01:19:20;32.40;;;16.35;;
24644;SDS011;12780;45.502;9.146;2022-11-20T01:21:49;32.95;;;16.92;;
24644;SDS011;12780;45.502;9.146;2022-11-20T01:24:17;32.10;;;15.77;;
24644;SDS011;12780;45.502;9.146;2022-11-20T01:26:44;33.40;;;16.45;;
24644;SDS011;12780;45.502;9.146;2022-11-20T01:29:13;35.72;;;16.83;;
24644;SDS011;12780;45.502;9.146;2022-11-20T01:31:49;35.85;;;16.55;;
24644;SDS011;12780;45.502;9.146;2022-11-20T01:34:19;32.95;;;16.25;;
24644;SDS011;12780;45.502;9.146;2022-11-20T01:36:45;32.75;;;16.05;;
24644;SDS011;12780;45.502;9.146;2022-11-20T01:41:48;31.92;;;16.13;;
24644;SDS011;12780;45.502;9.146;2022-11-20T01:47:12;31.45;;;16.50;;
24644;SDS011;12780;45.502;9.146;2022-11-20T01:49:42;33.28;;;16.42;;
24644;SDS011;12780;45.502;9.146;2022-11-20T01:52:20;30.73;;;16.10;;
24644;SDS011;12780;45.502;9.146;2022-11-20T01:57:23;38.90;;;17.50;;
24644;SDS011;12780;45.502;9.146;2022-11-20T01:59:53;37.60;;;17.48;;
24644;SDS011;12780;45.502;9.146;2022-11-20T02:02:26;33.30;;;17.05;;
24644;SDS011;12780;45.502;9.146;2022-11-20T02:04:53;36.30;;;17.25;;
24644;SDS011;12780;45.502;9.146;2022-11-20T02:07:22;43.20;;;19.63;;
24644;SDS011;12780;45.502;9.146;2022-11-20T02:09:48;38.22;;;18.52;;
24644;SDS011;12780;45.502;9.146;2022-11-20T02:12:15;40.45;;;19.60;;
24644;SDS011;12780;45.502;9.146;2022-11-20T02:14:59;41.30;;;20.08;;
24644;SDS011;12780;45.502;9.146;2022-11-20T02:17:25;41.22;;;19.88;;
24644;SDS011;12780;45.502;9.146;2022-11-20T02:19:50;38.38;;;18.83;;
24644;SDS011;12780;45.502;9.146;2022-11-20T02:22:21;36.60;;;18.77;;
24644;SDS011;12780;45.502;9.146;2022-11-20T02:24:54;41.72;;;20.00;;
24644;SDS011;12780;45.502;9.146;2022-11-20T02:27:21;38.15;;;18.25;;
24644;SDS011;12780;45.502;9.146;2022-11-20T02:29:54;38.22;;;19.58;;
24644;SDS011;12780;45.502;9.146;2022-11-20T02:32:24;42.13;;;19.40;;
24644;SDS011;12780;45.502;9.146;2022-11-20T02:34:51;33.85;;;17.60;;
24644;SDS011;12780;45.502;9.146;2022-11-20T02:37:17;34.53;;;17.95;;
24644;SDS011;12780;45.502;9.146;2022-11-20T02:39:44;33.97;;;17.30;;
24644;SDS011;12780;45.502;9.146;2022-11-20T02:42:12;38.75;;;18.50;;
24644;SDS011;12780;45.502;9.146;2022-11-20T02:44:38;35.85;;;18.40;;
24644;SDS011;12780;45.502;9.146;2022-11-20T02:47:03;34.92;;;17.85;;
24644;SDS011;12780;45.502;9.146;2022-11-20T02:49:29;34.70;;;17.70;;
24644;SDS011;12780;45.502;9.146;2022-11-20T02:51:55;35.05;;;17.27;;
24644;SDS011;12780;45.502;9.146;2022-11-20T02:54:20;36.92;;;18.05;;
24644;SDS011;12780;45.502;9.146;2022-11-20T02:56:46;35.53;;;18.48;;
24644;SDS011;12780;45.502;9.146;2022-11-20T02:59:11;39.15;;;17.85;;
24644;SDS011;12780;45.502;9.146;2022-11-20T03:01:37;33.58;;;17.77;;
24644;SDS011;12780;45.502;9.146;2022-11-20T03:04:03;37.40;;;18.30;;
24644;SDS011;12780;45.502;9.146;2022-11-20T03:06:29;33.38;;;17.35;;
24644;SDS011;12780;45.502;9.146;2022-11-20T03:08:54;31.20;;;16.13;;
24644;SDS011;12780;45.502;9.146;2022-11-20T03:11:20;34.22;;;17.00;;
24644;SDS011;12780;45.502;9.146;2022-11-20T03:13:45;32.58;;;15.93;;
24644;SDS011;12780;45.502;9.146;2022-11-20T03:16:12;31.95;;;16.10;;
24644;SDS011;12780;45.502;9.146;2022-11-20T03:18:40;34.17;;;16.27;;
24644;SDS011;12780;45.502;9.146;2022-11-20T03:21:07;29.58;;;15.18;;
24644;SDS011;12780;45.502;9.146;2022-11-20T03:23:34;29.85;;;15.88;;
24644;SDS011;12780;45.502;9.146;2022-11-20T03:26:14;25.65;;;15.35;;
24644;SDS011;12780;45.502;9.146;2022-11-20T03:28:50;31.42;;;15.15;;
24644;SDS011;12780;45.502;9.146;2022-11-20T03:31:19;30.92;;;15.85;;
24644;SDS011;12780;45.502;9.146;2022-11-20T03:33:47;31.67;;;15.40;;
24644;SDS011;12780;45.502;9.146;2022-11-20T03:36:13;29.02;;;15.30;;
24644;SDS011;12780;45.502;9.146;2022-11-20T03:38:40;31.98;;;15.05;;
24644;SDS011;12780;45.502;9.146;2022-11-20T03:41:09;27.63;;;14.50;;
24644;SDS011;12780;45.502;9.146;2022-11-20T03:43:37;27.70;;;14.23;;
24644;SDS011;12780;45.502;9.146;2022-11-20T03:46:03;29.25;;;14.45;;
24644;SDS011;12780;45.502;9.146;2022-11-20T03:48:30;29.13;;;14.00;;
24644;SDS011;12780;45.502;9.146;2022-11-20T03:53:43;25.00;;;13.30;;
24644;SDS011;12780;45.502;9.146;2022-11-20T03:56:10;25.15;;;13.35;;
24644;SDS011;12780;45.502;9.146;2022-11-20T03:58:37;25.40;;;13.00;;
24644;SDS011;12780;45.502;9.146;2022-11-20T04:01:10;26.85;;;13.82;;
24644;SDS011;12780;45.502;9.146;2022-11-20T04:03:38;27.27;;;12.95;;
24644;SDS011;12780;45.502;9.146;2022-11-20T04:06:06;25.90;;;13.05;;
24644;SDS011;12780;45.502;9.146;2022-11-20T04:08:34;29.00;;;13.10;;
24644;SDS011;12780;45.502;9.146;2022-11-20T04:11:10;24.67;;;12.95;;
24644;SDS011;12780;45.502;9.146;2022-11-20T04:13:39;23.45;;;11.98;;
24644;SDS011;12780;45.502;9.146;2022-11-20T04:16:05;25.02;;;13.15;;
24644;SDS011;12780;45.502;9.146;2022-11-20T04:18:32;25.27;;;12.00;;
24644;SDS011;12780;45.502;9.146;2022-11-20T04:20:58;26.85;;;12.18;;
24644;SDS011;12780;45.502;9.146;2022-11-20T04:23:25;23.95;;;12.38;;
24644;SDS011;12780;45.502;9.146;2022-11-20T04:25:51;23.77;;;12.48;;
24644;SDS011;12780;45.502;9.146;2022-11-20T04:28:16;21.73;;;11.27;;
24644;SDS011;12780;45.502;9.146;2022-11-20T04:30:42;21.55;;;11.55;;
24644;SDS011;12780;45.502;9.146;2022-11-20T04:33:07;29.90;;;12.50;;
24644;SDS011;12780;45.502;9.146;2022-11-20T04:35:34;25.30;;;12.10;;
24644;SDS011;12780;45.502;9.146;2022-11-20T04:38:00;19.30;;;10.90;;
24644;SDS011;12780;45.502;9.146;2022-11-20T04:40:25;23.58;;;11.18;;
24644;SDS011;12780;45.502;9.146;2022-11-20T04:42:52;21.13;;;10.88;;
24644;SDS011;12780;45.502;9.146;2022-11-20T04:45:17;27.02;;;12.32;;
24644;SDS011;12780;45.502;9.146;2022-11-20T04:47:43;26.10;;;11.50;;
24644;SDS011;12780;45.502;9.146;2022-11-20T04:50:09;21.33;;;11.35;;
24644;SDS011;12780;45.502;9.146;2022-11-20T04:52:34;23.27;;;11.02;;
24644;SDS011;12780;45.502;9.146;2022-11-20T04:55:00;23.10;;;11.23;;
24644;SDS011;12780;45.502;9.146;2022-11-20T04:57:25;20.85;;;11.15;;
24644;SDS011;12780;45.502;9.146;2022-11-20T04:59:51;24.02;;;11.05;;
24644;SDS011;12780;45.502;9.146;2022-11-20T05:02:16;19.70;;;10.80;;
24644;SDS011;12780;45.502;9.146;2022-11-20T05:04:42;19.98;;;10.23;;
24644;SDS011;12780;45.502;9.146;2022-11-20T05:07:07;18.88;;;10.82;;
24644;SDS011;12780;45.502;9.146;2022-11-20T05:09:33;18.63;;;10.40;;
24644;SDS011;12780;45.502;9.146;2022-11-20T05:11:59;21.15;;;11.18;;
24644;SDS011;12780;45.502;9.146;2022-11-20T05:14:24;20.30;;;10.50;;
24644;SDS011;12780;45.502;9.146;2022-11-20T05:16:50;18.33;;;9.98;;
24644;SDS011;12780;45.502;9.146;2022-11-20T05:19:15;21.23;;;10.30;;
24644;SDS011;12780;45.502;9.146;2022-11-20T05:21:41;19.67;;;9.98;;
24644;SDS011;12780;45.502;9.146;2022-11-20T05:24:06;20.23;;;9.98;;
24644;SDS011;12780;45.502;9.146;2022-11-20T05:26:32;21.55;;;10.45;;
24644;SDS011;12780;45.502;9.146;2022-11-20T05:28:58;17.92;;;10.02;;
24644;SDS011;12780;45.502;9.146;2022-11-20T05:31:24;19.52;;;9.65;;
24644;SDS011;12780;45.502;9.146;2022-11-20T05:33:50;16.88;;;9.55;;
24644;SDS011;12780;45.502;9.146;2022-11-20T05:36:16;20.90;;;10.65;;
24644;SDS011;12780;45.502;9.146;2022-11-20T05:38:42;16.40;;;9.45;;
24644;SDS011;12780;45.502;9.146;2022-11-20T05:41:12;18.13;;;9.52;;
24644;SDS011;12780;45.502;9.146;2022-11-20T05:43:43;19.33;;;10.63;;
24644;SDS011;12780;45.502;9.146;2022-11-20T05:46:11;21.77;;;11.77;;
24644;SDS011;12780;45.502;9.146;2022-11-20T05:48:39;23.52;;;11.25;;
24644;SDS011;12780;45.502;9.146;2022-11-20T05:51:07;22.60;;;11.75;;
24644;SDS011;12780;45.502;9.146;2022-11-20T05:53:34;22.95;;;11.32;;
24644;SDS011;12780;45.502;9.146;2022-11-20T05:56:01;21.50;;;11.63;;
24644;SDS011;12780;45.502;9.146;2022-11-20T05:58:30;25.42;;;11.73;;
24644;SDS011;12780;45.502;9.146;2022-11-20T06:01:29;19.38;;;11.38;;
24644;SDS011;12780;45.502;9.146;2022-11-20T06:03:49;21.50;;;11.23;;
24644;SDS011;12780;45.502;9.146;2022-11-20T06:06:15;24.13;;;10.88;;
24644;SDS011;12780;45.502;9.146;2022-11-20T06:08:42;19.63;;;10.05;;
24644;SDS011;12780;45.502;9.146;2022-11-20T06:11:09;19.60;;;9.98;;
24644;SDS011;12780;45.502;9.146;2022-11-20T06:13:36;17.50;;;8.65;;
24644;SDS011;12780;45.502;9.146;2022-11-20T06:16:02;17.05;;;9.10;;
24644;SDS011;12780;45.502;9.146;2022-11-20T06:18:28;18.88;;;10.55;;
24644;SDS011;12780;45.502;9.146;2022-11-20T06:23:50;19.77;;;10.00;;
24644;SDS011;12780;45.502;9.146;2022-11-20T06:26:21;17.88;;;8.98;;
24644;SDS011;12780;45.502;9.146;2022-11-20T06:28:48;17.83;;;9.38;;
24644;SDS011;12780;45.502;9.146;2022-11-20T06:31:15;18.88;;;9.23;;
24644;SDS011;12780;45.502;9.146;2022-11-20T06:33:43;18.23;;;9.35;;
24644;SDS011;12780;45.502;9.146;2022-11-20T06:36:09;17.70;;;8.73;;
24644;SDS011;12780;45.502;9.146;2022-11-20T06:38:37;20.23;;;9.55;;
24644;SDS011;12780;45.502;9.146;2022-11-20T06:41:07;21.50;;;8.85;;
24644;SDS011;12780;45.502;9.146;2022-11-20T06:43:37;16.00;;;9.55;;
24644;SDS011;12780;45.502;9.146;2022-11-20T06:46:02;20.33;;;10.65;;
24644;SDS011;12780;45.502;9.146;2022-11-20T06:48:28;18.38;;;10.02;;
24644;SDS011;12780;45.502;9.146;2022-11-20T06:50:54;24.45;;;10.30;;
24644;SDS011;12780;45.502;9.146;2022-11-20T06:53:21;17.77;;;9.77;;
24644;SDS011;12780;45.502;9.146;2022-11-20T06:55:47;16.10;;;9.23;;
24644;SDS011;12780;45.502;9.146;2022-11-20T06:58:13;18.08;;;10.25;;
24644;SDS011;12780;45.502;9.146;2022-11-20T07:00:40;16.48;;;9.27;;
24644;SDS011;12780;45.502;9.146;2022-11-20T07:03:06;21.20;;;10.02;;
24644;SDS011;12780;45.502;9.146;2022-11-20T07:05:35;22.48;;;10.70;;
24644;SDS011;12780;45.502;9.146;2022-11-20T07:08:01;24.80;;;11.32;;
24644;SDS011;12780;45.502;9.146;2022-11-20T07:10:27;20.52;;;11.65;;
24644;SDS011;12780;45.502;9.146;2022-11-20T07:12:53;20.73;;;11.98;;
24644;SDS011;12780;45.502;9.146;2022-11-20T07:15:19;20.35;;;11.05;;
24644;SDS011;12780;45.502;9.146;2022-11-20T07:17:46;24.45;;;12.65;;
24644;SDS011;12780;45.502;9.146;2022-11-20T07:20:12;23.30;;;11.85;;
24644;SDS011;12780;45.502;9.146;2022-11-20T07:22:38;19.35;;;10.40;;
24644;SDS011;12780;45.502;9.146;2022-11-20T07:25:04;18.42;;;10.82;;
24644;SDS011;12780;45.502;9.146;2022-11-20T07:27:30;19.80;;;10.55;;
24644;SDS011;12780;45.502;9.146;2022-11-20T07:29:56;20.42;;;11.30;;
24644;SDS011;12780;45.502;9.146;2022-11-20T07:32:22;19.52;;;10.77;;
24644;SDS011;12780;45.502;9.146;2022-11-20T07:34:47;20.50;;;10.25;;
24644;SDS011;12780;45.502;9.146;2022-11-20T07:37:13;19.42;;;10.02;;
24644;SDS011;12780;45.502;9.146;2022-11-20T07:39:39;19.27;;;10.10;;
24644;SDS011;12780;45.502;9.146;2022-11-20T07:42:08;20.55;;;10.80;;
24644;SDS011;12780;45.502;9.146;2022-11-20T07:44:34;20.45;;;10.38;;
24644;SDS011;12780;45.502;9.146;2022-11-20T07:47:00;17.48;;;9.48;;
24644;SDS011;12780;45.502;9.146;2022-11-20T07:49:26;17.92;;;9.50;;
24644;SDS011;12780;45.502;9.146;2022-11-20T07:51:51;14.90;;;8.95;;
24644;SDS011;12780;45.502;9.146;2022-11-20T07:54:20;20.73;;;9.98;;
24644;SDS011;12780;45.502;9.146;2022-11-20T07:56:47;22.75;;;10.32;;
24644;SDS011;12780;45.502;9.146;2022-11-20T07:59:13;19.70;;;8.80;;
24644;SDS011;12780;45.502;9.146;2022-11-20T08:01:39;19.65;;;8.77;;
24644;SDS011;12780;45.502;9.146;2022-11-20T08:04:04;17.45;;;8.90;;
24644;SDS011;12780;45.502;9.146;2022-11-20T08:06:30;15.63;;;7.65;;
24644;SDS011;12780;45.502;9.146;2022-11-20T08:08:56;13.82;;;7.90;;
24644;SDS011;12780;45.502;9.146;2022-11-20T08:11:22;14.77;;;7.53;;
24644;SDS011;12780;45.502;9.146;2022-11-20T08:14:06;13.90;;;7.50;;
24644;SDS011;12780;45.502;9.146;2022-11-20T08:16:37;15.63;;;7.78;;
24644;SDS011;12780;45.502;9.146;2022-11-20T08:19:07;22.27;;;7.60;;
24644;SDS011;12780;45.502;9.146;2022-11-20T08:21:33;12.55;;;7.55;;
24644;SDS011;12780;45.502;9.146;2022-11-20T08:23:59;20.73;;;8.85;;
24644;SDS011;12780;45.502;9.146;2022-11-20T08:26:25;18.83;;;8.73;;
24644;SDS011;12780;45.502;9.146;2022-11-20T08:28:54;14.70;;;7.53;;
24644;SDS011;12780;45.502;9.146;2022-11-20T08:31:21;17.15;;;7.60;;
24644;SDS011;12780;45.502;9.146;2022-11-20T08:33:51;12.00;;;7.30;;
24644;SDS011;12780;45.502;9.146;2022-11-20T08:36:17;14.82;;;6.93;;
24644;SDS011;12780;45.502;9.146;2022-11-20T08:38:50;16.58;;;6.63;;
24644;SDS011;12780;45.502;9.146;2022-11-20T08:41:17;13.40;;;6.68;;
24644;SDS011;12780;45.502;9.146;2022-11-20T08:43:49;12.93;;;6.97;;
24644;SDS011;12780;45.502;9.146;2022-11-20T08:46:15;11.70;;;6.90;;
24644;SDS011;12780;45.502;9.146;2022-11-20T08:48:41;11.98;;;6.80;;
24644;SDS011;12780;45.502;9.146;2022-11-20T08:51:07;14.93;;;7.72;;
24644;SDS011;12780;45.502;9.146;2022-11-20T08:53:33;11.35;;;6.93;;
24644;SDS011;12780;45.502;9.146;2022-11-20T08:55:59;14.05;;;7.65;;
24644;SDS011;12780;45.502;9.146;2022-11-20T08:58:25;14.38;;;6.97;;
24644;SDS011;12780;45.502;9.146;2022-11-20T09:00:51;10.80;;;6.78;;
24644;SDS011;12780;45.502;9.146;2022-11-20T09:03:16;11.27;;;6.30;;
24644;SDS011;12780;45.502;9.146;2022-11-20T09:05:42;12.48;;;6.10;;
24644;SDS011;12780;45.502;9.146;2022-11-20T09:08:07;12.48;;;6.55;;
24644;SDS011;12780;45.502;9.146;2022-11-20T09:10:33;16.65;;;7.13;;
24644;SDS011;12780;45.502;9.146;2022-11-20T09:12:59;15.57;;;6.97;;
24644;SDS011;12780;45.502;9.146;2022-11-20T09:15:25;15.48;;;8.15;;
24644;SDS011;12780;45.502;9.146;2022-11-20T09:17:54;16.58;;;7.70;;
24644;SDS011;12780;45.502;9.146;2022-11-20T09:20:25;14.50;;;7.05;;
24644;SDS011;12780;45.502;9.146;2022-11-20T09:22:51;13.15;;;6.75;;
24644;SDS011;12780;45.502;9.146;2022-11-20T09:25:17;10.23;;;6.43;;
24644;SDS011;12780;45.502;9.146;2022-11-20T09:27:43;12.85;;;6.70;;
24644;SDS011;12780;45.502;9.146;2022-11-20T09:30:11;9.35;;;4.88;;
24644;SDS011;12780;45.502;9.146;2022-11-20T09:32:41;9.75;;;5.55;;
24644;SDS011;12780;45.502;9.146;2022-11-20T09:35:07;12.02;;;5.07;;
24644;SDS011;12780;45.502;9.146;2022-11-20T09:37:34;8.23;;;4.97;;
24644;SDS011;12780;45.502;9.146;2022-11-20T09:40:00;7.25;;;4.25;;
24644;SDS011;12780;45.502;9.146;2022-11-20T09:53:45;8.85;;;5.15;;
24644;SDS011;12780;45.502;9.146;2022-11-20T09:56:24;9.20;;;4.88;;
24644;SDS011;12780;45.502;9.146;2022-11-20T09:58:51;10.75;;;5.28;;
24644;SDS011;12780;45.502;9.146;2022-11-20T10:01:20;10.10;;;5.00;;
24644;SDS011;12780;45.502;9.146;2022-11-20T10:06:21;9.48;;;5.60;;
24644;SDS011;12780;45.502;9.146;2022-11-20T10:15:13;11.10;;;6.00;;
24644;SDS011;12780;45.502;9.146;2022-11-20T10:31:33;11.32;;;6.10;;
24644;SDS011;12780;45.502;9.146;2022-11-20T10:36:46;12.00;;;6.03;;
24644;SDS011;12780;45.502;9.146;2022-11-20T10:42:08;11.90;;;5.50;;
24644;SDS011;12780;45.502;9.146;2022-11-20T10:44:39;9.18;;;4.97;;
24644;SDS011;12780;45.502;9.146;2022-11-20T10:47:25;9.48;;;5.57;;
24644;SDS011;12780;45.502;9.146;2022-11-20T10:49:54;11.35;;;5.78;;
24644;SDS011;12780;45.502;9.146;2022-11-20T10:55:06;9.23;;;5.78;;
24644;SDS011;12780;45.502;9.146;2022-11-20T11:00:23;11.15;;;5.30;;
24644;SDS011;12780;45.502;9.146;2022-11-20T11:02:50;9.25;;;5.30;;
24644;SDS011;12780;45.502;9.146;2022-11-20T11:08:36;8.43;;;4.75;;
24644;SDS011;12780;45.502;9.146;2022-11-20T11:13:50;8.90;;;5.25;;
24644;SDS011;12780;45.502;9.146;2022-11-20T11:16:20;11.57;;;4.88;;
24644;SDS011;12780;45.502;9.146;2022-11-20T11:18:50;8.00;;;4.93;;
24644;SDS011;12780;45.502;9.146;2022-11-20T11:21:23;12.73;;;6.20;;
24644;SDS011;12780;45.502;9.146;2022-11-20T11:26:25;14.48;;;7.30;;
24644;SDS011;12780;45.502;9.146;2022-11-20T11:29:02;15.02;;;8.02;;
24644;SDS011;12780;45.502;9.146;2022-11-20T11:31:30;14.85;;;8.98;;
24644;SDS011;12780;45.502;9.146;2022-11-20T11:34:07;21.20;;;9.90;;
24644;SDS011;12780;45.502;9.146;2022-11-20T11:36:36;17.23;;;8.80;;
24644;SDS011;12780;45.502;9.146;2022-11-20T11:39:03;14.05;;;8.60;;
24644;SDS011;12780;45.502;9.146;2022-11-20T11:41:33;16.20;;;9.07;;
24644;SDS011;12780;45.502;9.146;2022-11-20T11:44:03;14.45;;;8.73;;
24644;SDS011;12780;45.502;9.146;2022-11-20T11:47:00;16.02;;;8.80;;
24644;SDS011;12780;45.502;9.146;2022-11-20T11:49:27;16.42;;;9.05;;
24644;SDS011;12780;45.502;9.146;2022-11-20T11:54:43;17.38;;;8.57;;
24644;SDS011;12780;45.502;9.146;2022-11-20T12:00:05;14.43;;;8.68;;
24644;SDS011;12780;45.502;9.146;2022-11-20T12:08:04;14.45;;;8.60;;
24644;SDS011;12780;45.502;9.146;2022-11-20T12:10:48;17.83;;;8.30;;
24644;SDS011;12780;45.502;9.146;2022-11-20T12:15:47;12.57;;;7.32;;
24644;SDS011;12780;45.502;9.146;2022-11-20T12:18:20;11.82;;;6.90;;
24644;SDS011;12780;45.502;9.146;2022-11-20T12:26:05;14.63;;;7.22;;
24644;SDS011;12780;45.502;9.146;2022-11-20T12:28:51;13.45;;;7.20;;
24644;SDS011;12780;45.502;9.146;2022-11-20T12:31:35;12.43;;;6.97;;
24644;SDS011;12780;45.502;9.146;2022-11-20T12:34:23;12.55;;;7.10;;
24644;SDS011;12780;45.502;9.146;2022-11-20T12:37:13;12.48;;;7.15;;
24644;SDS011;12780;45.502;9.146;2022-11-20T12:39:50;11.18;;;6.97;;
24644;SDS011;12780;45.502;9.146;2022-11-20T12:42:42;11.48;;;6.72;;
24644;SDS011;12780;45.502;9.146;2022-11-20T12:45:53;12.50;;;7.15;;
24644;SDS011;12780;45.502;9.146;2022-11-20T12:48:29;12.50;;;6.13;;
24644;SDS011;12780;45.502;9.146;2022-11-20T12:54:20;11.18;;;6.05;;
24644;SDS011;12780;45.502;9.146;2022-11-20T13:05:48;8.60;;;4.72;;
24644;SDS011;12780;45.502;9.146;2022-11-20T13:08:25;7.90;;;4.80;;
24644;SDS011;12780;45.502;9.146;2022-11-20T13:14:07;7.28;;;4.65;;
24644;SDS011;12780;45.502;9.146;2022-11-20T13:17:14;9.43;;;4.90;;
24644;SDS011;12780;45.502;9.146;2022-11-20T13:19:49;8.35;;;5.20;;
24644;SDS011;12780;45.502;9.146;2022-11-20T13:22:25;11.68;;;5.47;;
24644;SDS011;12780;45.502;9.146;2022-11-20T13:24:52;10.02;;;4.78;;
24644;SDS011;12780;45.502;9.146;2022-11-20T13:27:19;21.25;;;7.50;;
24644;SDS011;12780;45.502;9.146;2022-11-20T13:30:10;27.92;;;7.70;;
24644;SDS011;12780;45.502;9.146;2022-11-20T13:35:23;8.70;;;5.38;;
24644;SDS011;12780;45.502;9.146;2022-11-20T13:40:30;8.25;;;4.50;;
24644;SDS011;12780;45.502;9.146;2022-11-20T13:43:33;7.65;;;4.60;;
24644;SDS011;12780;45.502;9.146;2022-11-20T13:45:57;6.88;;;4.20;;
24644;SDS011;12780;45.502;9.146;2022-11-20T13:48:44;6.82;;;4.18;;
24644;SDS011;12780;45.502;9.146;2022-11-20T14:02:14;5.18;;;3.15;;
24644;SDS011;12780;45.502;9.146;2022-11-20T14:04:43;5.45;;;3.33;;
24644;SDS011;12780;45.502;9.146;2022-11-20T14:07:12;6.03;;;2.97;;
24644;SDS011;12780;45.502;9.146;2022-11-20T14:09:38;5.95;;;3.28;;
24644;SDS011;12780;45.502;9.146;2022-11-20T14:12:17;5.05;;;2.38;;
24644;SDS011;12780;45.502;9.146;2022-11-20T14:14:49;3.92;;;2.40;;
24644;SDS011;12780;45.502;9.146;2022-11-20T14:19:48;4.82;;;2.72;;
24644;SDS011;12780;45.502;9.146;2022-11-20T14:22:17;4.03;;;2.30;;
24644;SDS011;12780;45.502;9.146;2022-11-20T14:25:17;4.05;;;2.33;;
24644;SDS011;12780;45.502;9.146;2022-11-20T14:27:47;4.68;;;2.33;;
24644;SDS011;12780;45.502;9.146;2022-11-20T14:30:18;5.32;;;3.05;;
24644;SDS011;12780;45.502;9.146;2022-11-20T14:32:49;5.43;;;2.47;;
24644;SDS011;12780;45.502;9.146;2022-11-20T14:35:26;6.35;;;2.60;;
24644;SDS011;12780;45.502;9.146;2022-11-20T14:37:54;10.88;;;2.80;;
24644;SDS011;12780;45.502;9.146;2022-11-20T14:40:21;5.63;;;3.00;;
24644;SDS011;12780;45.502;9.146;2022-11-20T14:43:00;7.28;;;3.00;;
24644;SDS011;12780;45.502;9.146;2022-11-20T14:45:26;4.15;;;2.45;;
24644;SDS011;12780;45.502;9.146;2022-11-20T14:47:53;6.97;;;2.88;;
24644;SDS011;12780;45.502;9.146;2022-11-20T14:50:23;6.07;;;3.00;;
24644;SDS011;12780;45.502;9.146;2022-11-20T14:52:54;6.43;;;3.17;;
24644;SDS011;12780;45.502;9.146;2022-11-20T14:55:26;7.03;;;3.17;;
24644;SDS011;12780;45.502;9.146;2022-11-20T14:57:58;7.13;;;3.20;;
24644;SDS011;12780;45.502;9.146;2022-11-20T15:00:29;9.00;;;3.50;;
24644;SDS011;12780;45.502;9.146;2022-11-20T15:02:56;7.45;;;2.90;;
24644;SDS011;12780;45.502;9.146;2022-11-20T15:05:23;8.30;;;3.03;;
24644;SDS011;12780;45.502;9.146;2022-11-20T15:07:52;9.77;;;3.20;;
24644;SDS011;12780;45.502;9.146;2022-11-20T15:10:30;6.40;;;3.42;;
24644;SDS011;12780;45.502;9.146;2022-11-20T15:13:03;8.27;;;3.30;;
24644;SDS011;12780;45.502;9.146;2022-11-20T15:15:36;10.15;;;3.70;;
24644;SDS011;12780;45.502;9.146;2022-11-20T15:18:19;7.40;;;3.55;;
24644;SDS011;12780;45.502;9.146;2022-11-20T15:21:02;8.23;;;3.50;;
24644;SDS011;12780;45.502;9.146;2022-11-20T15:23:34;10.48;;;3.83;;
24644;SDS011;12780;45.502;9.146;2022-11-20T15:26:00;8.65;;;3.75;;
24644;SDS011;12780;45.502;9.146;2022-11-20T15:28:33;10.27;;;4.18;;
24644;SDS011;12780;45.502;9.146;2022-11-20T15:31:02;12.38;;;4.30;;
24644;SDS011;12780;45.502;9.146;2022-11-20T15:33:28;10.23;;;3.97;;
24644;SDS011;12780;45.502;9.146;2022-11-20T15:35:55;9.43;;;4.25;;
24644;SDS011;12780;45.502;9.146;2022-11-20T15:38:21;12.02;;;4.43;;
24644;SDS011;12780;45.502;9.146;2022-11-20T15:40:46;10.02;;;4.03;;
24644;SDS011;12780;45.502;9.146;2022-11-20T15:43:12;9.88;;;3.72;;
24644;SDS011;12780;45.502;9.146;2022-11-20T15:48:15;10.18;;;4.53;;
24644;SDS011;12780;45.502;9.146;2022-11-20T15:53:26;12.52;;;4.70;;
24644;SDS011;12780;45.502;9.146;2022-11-20T15:55:52;17.15;;;4.60;;
24644;SDS011;12780;45.502;9.146;2022-11-20T15:58:18;10.25;;;4.53;;
24644;SDS011;12780;45.502;9.146;2022-11-20T16:00:43;9.77;;;4.35;;
24644;SDS011;12780;45.502;9.146;2022-11-20T16:03:13;13.55;;;4.38;;
24644;SDS011;12780;45.502;9.146;2022-11-20T16:05:40;14.73;;;5.70;;
24644;SDS011;12780;45.502;9.146;2022-11-20T16:08:06;15.73;;;5.28;;
24644;SDS011;12780;45.502;9.146;2022-11-20T16:10:32;13.38;;;5.20;;
24644;SDS011;12780;45.502;9.146;2022-11-20T16:12:58;12.80;;;4.72;;
24644;SDS011;12780;45.502;9.146;2022-11-20T16:15:42;13.13;;;5.18;;
24644;SDS011;12780;45.502;9.146;2022-11-20T16:18:11;14.38;;;5.32;;
24644;SDS011;12780;45.502;9.146;2022-11-20T16:20:42;11.73;;;4.97;;
24644;SDS011;12780;45.502;9.146;2022-11-20T16:23:09;15.45;;;5.00;;
24644;SDS011;12780;45.502;9.146;2022-11-20T16:25:34;16.15;;;5.55;;
24644;SDS011;12780;45.502;9.146;2022-11-20T16:28:00;15.02;;;5.85;;
24644;SDS011;12780;45.502;9.146;2022-11-20T16:30:25;12.38;;;5.63;;
24644;SDS011;12780;45.502;9.146;2022-11-20T16:32:51;12.25;;;5.43;;
24644;SDS011;12780;45.502;9.146;2022-11-20T16:35:17;23.13;;;5.82;;
24644;SDS011;12780;45.502;9.146;2022-11-20T16:37:42;13.90;;;4.90;;
24644;SDS011;12780;45.502;9.146;2022-11-20T16:40:08;11.18;;;4.80;;
24644;SDS011;12780;45.502;9.146;2022-11-20T16:42:35;11.05;;;5.30;;
24644;SDS011;12780;45.502;9.146;2022-11-20T16:45:02;14.23;;;5.32;;
24644;SDS011;12780;45.502;9.146;2022-11-20T16:47:32;14.00;;;5.30;;